Time;durP1;ratioP1;P1;durP2;ratioP2;P2;SDS_P1;SDS_P2;PMS_P1;PMS_P2;Temp;Humidity;BMP_temperature;BMP_pressure;BME280_temperature;BME280_humidity;BME280_pressure;Samples;Min_cycle;Max_cycle;Signal;HPM_P1;HPM_P2
2022/02/17 00:01:36;;;;;;;0.08;0.08;;;;;;;11.18;100.00;97669.69;5010080;28;20201;-83
2022/02/17 00:04:03;;;;;;;0.17;0.10;;;;;;;11.22;100.00;97678.25;5009122;28;20248;-84
2022/02/17 00:06:29;;;;;;;0.32;0.10;;;;;;;11.24;100.00;97670.69;5009928;28;20161;-84
2022/02/17 00:08:56;;;;;;;0.20;0.10;;;;;;;11.31;100.00;97685.88;5009393;28;20058;-84
2022/02/17 00:11:22;;;;;;;0.10;0.10;;;;;;;11.36;100.00;97673.50;5009201;28;20046;-84
2022/02/17 00:13:49;;;;;;;0.00;0.00;;;;;;;11.33;100.00;97661.16;5009734;28;20057;-83
2022/02/17 00:16:17;;;;;;;0.13;0.13;;;;;;;11.43;100.00;97663.38;5009877;28;20378;-84
2022/02/17 00:18:44;;;;;;;1.45;0.15;;;;;;;11.54;100.00;97659.88;5010481;28;20485;-84
2022/02/17 00:21:10;;;;;;;0.20;0.10;;;;;;;11.51;100.00;97650.28;5009099;28;20046;-84
2022/02/17 00:23:37;;;;;;;0.28;0.15;;;;;;;11.51;100.00;97646.72;5005987;28;20497;-84
2022/02/17 00:26:04;;;;;;;0.30;0.10;;;;;;;11.58;100.00;97638.50;5010341;28;20513;-84
2022/02/17 00:28:30;;;;;;;0.10;0.10;;;;;;;11.64;100.00;97632.97;5010170;28;20042;-83
2022/02/17 00:30:57;;;;;;;0.65;0.05;;;;;;;11.63;100.00;97647.63;5010191;28;20050;-84
2022/02/17 00:33:25;;;;;;;0.10;0.10;;;;;;;11.67;100.00;97643.38;5007215;28;20053;-84
2022/02/17 00:35:52;;;;;;;0.40;0.10;;;;;;;11.66;100.00;97630.81;5010228;28;20129;-84
2022/02/17 00:38:19;;;;;;;0.10;0.10;;;;;;;11.67;100.00;97637.94;5009414;28;20064;-84
2022/02/17 00:40:45;;;;;;;0.13;0.00;;;;;;;11.69;100.00;97657.59;5009424;28;20046;-84
2022/02/17 00:43:12;;;;;;;0.10;0.10;;;;;;;11.74;100.00;97637.03;5007617;28;20046;-85
2022/02/17 00:45:39;;;;;;;0.00;0.00;;;;;;;11.69;100.00;97622.19;5010221;28;20049;-85
2022/02/17 00:48:06;;;;;;;0.10;0.00;;;;;;;11.68;100.00;97620.56;5010688;28;20140;-84
2022/02/17 00:50:34;;;;;;;0.30;0.17;;;;;;;11.57;100.00;97621.31;5009626;28;20121;-83
2022/02/17 00:53:01;;;;;;;0.10;0.10;;;;;;;11.49;100.00;97646.13;5008730;28;20044;-84
2022/02/17 00:55:27;;;;;;;1.75;0.10;;;;;;;11.42;100.00;97629.06;5009407;28;20081;-84
2022/02/17 00:57:54;;;;;;;0.00;0.00;;;;;;;11.38;100.00;97639.56;5013583;28;20064;-85
2022/02/17 01:00:20;;;;;;;0.10;0.10;;;;;;;11.32;100.00;97652.19;5008817;28;20050;-84
2022/02/17 01:02:48;;;;;;;0.13;0.10;;;;;;;11.28;100.00;97650.16;5010113;28;20053;-84
2022/02/17 01:05:14;;;;;;;0.10;0.10;;;;;;;11.25;100.00;97675.91;5010973;28;20559;-85
2022/02/17 01:07:42;;;;;;;0.70;0.05;;;;;;;11.30;100.00;97691.56;4995069;28;20060;-84
2022/02/17 01:10:10;;;;;;;0.00;0.00;;;;;;;11.14;100.00;97680.22;5011786;28;20417;-84
2022/02/17 01:12:37;;;;;;;0.28;0.10;;;;;;;11.27;100.00;97686.56;5010110;28;20137;-84
2022/02/17 01:15:04;;;;;;;0.75;0.10;;;;;;;11.17;100.00;97678.94;5013568;28;20074;-84
2022/02/17 01:17:30;;;;;;;0.13;0.00;;;;;;;11.19;100.00;97673.28;5012994;28;20046;-85
2022/02/17 01:19:57;;;;;;;0.00;0.00;;;;;;;11.01;100.00;97634.09;5012877;28;20042;-84
2022/02/17 01:22:23;;;;;;;0.10;0.10;;;;;;;11.04;100.00;97649.97;5000094;28;20050;-84
2022/02/17 01:24:51;;;;;;;0.00;0.00;;;;;;;11.01;100.00;97646.88;5009482;28;20409;-84
2022/02/17 01:27:18;;;;;;;2.30;0.65;;;;;;;10.99;100.00;97655.28;5012767;28;20130;-84
2022/02/17 01:29:45;;;;;;;0.05;0.05;;;;;;;10.89;100.00;97634.00;5013175;28;20046;-85
2022/02/17 01:32:14;;;;;;;1.35;0.10;;;;;;;10.97;100.00;97676.41;5007190;28;20496;-85
2022/02/17 01:34:41;;;;;;;0.43;0.20;;;;;;;10.91;100.00;97639.22;5011817;28;20052;-84
2022/02/17 01:37:08;;;;;;;0.08;0.00;;;;;;;10.88;100.00;97642.41;5012421;28;20096;-84
2022/02/17 01:39:36;;;;;;;0.20;0.20;;;;;;;10.78;100.00;97638.31;5011631;28;20058;-84
2022/02/17 01:42:07;;;;;;;0.10;0.10;;;;;;;10.75;100.00;97644.19;5010684;28;20050;-84
2022/02/17 01:44:34;;;;;;;0.30;0.10;;;;;;;10.59;100.00;97642.84;5011642;28;20045;-84
2022/02/17 01:47:00;;;;;;;0.10;0.10;;;;;;;10.55;100.00;97654.41;5010059;28;20042;-84
2022/02/17 01:49:27;;;;;;;0.47;0.10;;;;;;;10.52;100.00;97650.22;5006741;28;20060;-84
2022/02/17 01:51:54;;;;;;;0.00;0.00;;;;;;;10.52;100.00;97652.13;5010033;28;20247;-84
2022/02/17 01:54:21;;;;;;;0.00;0.00;;;;;;;10.44;100.00;97643.19;5011270;28;20481;-84
2022/02/17 01:56:49;;;;;;;0.20;0.10;;;;;;;10.39;100.00;97653.06;5012164;28;20046;-84
2022/02/17 01:59:17;;;;;;;0.00;0.00;;;;;;;10.40;100.00;97644.72;5009167;28;20046;-84
2022/02/17 02:01:44;;;;;;;0.35;0.10;;;;;;;10.38;100.00;97641.34;5009142;28;20050;-84
2022/02/17 02:04:11;;;;;;;1.00;0.15;;;;;;;10.41;100.00;97640.09;5009587;28;20042;-84
2022/02/17 02:06:38;;;;;;;0.10;0.10;;;;;;;10.34;100.00;97631.16;5012364;28;20054;-84
2022/02/17 02:09:05;;;;;;;0.10;0.10;;;;;;;10.24;100.00;97618.88;5011835;28;20515;-83
2022/02/17 02:11:32;;;;;;;0.10;0.10;;;;;;;10.31;100.00;97626.97;5012021;28;20045;-83
2022/02/17 02:13:58;;;;;;;0.10;0.10;;;;;;;10.25;100.00;97612.41;5010640;28;20137;-84
2022/02/17 02:16:26;;;;;;;0.10;0.10;;;;;;;10.30;100.00;97603.59;5012339;28;20061;-84
2022/02/17 02:18:53;;;;;;;0.20;0.20;;;;;;;10.28;100.00;97602.97;5013774;28;20389;-84
2022/02/17 02:21:23;;;;;;;0.10;0.10;;;;;;;10.28;100.00;97597.53;5011194;28;20049;-84
2022/02/17 02:23:50;;;;;;;0.50;0.35;;;;;;;10.30;100.00;97589.16;5006376;28;20038;-84
2022/02/17 02:26:16;;;;;;;0.00;0.00;;;;;;;10.26;100.00;97600.47;5011611;28;20060;-84
2022/02/17 02:28:43;;;;;;;0.03;0.00;;;;;;;10.23;100.00;97611.78;5011768;28;20125;-84
2022/02/17 02:31:11;;;;;;;0.10;0.10;;;;;;;10.22;100.00;97604.69;5002354;28;20696;-84
2022/02/17 02:33:38;;;;;;;0.38;0.15;;;;;;;10.34;100.00;97628.44;5010374;28;20050;-83
2022/02/17 02:36:07;;;;;;;0.13;0.13;;;;;;;10.28;100.00;97620.09;5012407;28;20057;-84
2022/02/17 02:38:35;;;;;;;0.13;0.10;;;;;;;10.31;100.00;97620.69;5011832;28;20081;-84
2022/02/17 02:41:02;;;;;;;0.28;0.00;;;;;;;10.36;100.00;97605.44;5011585;28;20046;-84
2022/02/17 02:43:28;;;;;;;0.40;0.10;;;;;;;10.32;100.00;97589.78;5009585;28;20057;-84
2022/02/17 02:45:55;;;;;;;0.00;0.00;;;;;;;10.24;100.00;97574.59;5010371;28;20060;-84
2022/02/17 02:48:21;;;;;;;0.17;0.10;;;;;;;10.30;100.00;97587.28;4998952;28;20090;-84
2022/02/17 02:50:48;;;;;;;0.45;0.03;;;;;;;10.31;100.00;97597.09;5005945;28;20072;-83
2022/02/17 02:53:16;;;;;;;0.57;0.20;;;;;;;10.34;100.00;97606.72;5010467;28;20140;-83
2022/02/17 02:55:45;;;;;;;0.00;0.00;;;;;;;10.29;100.00;97588.34;5011169;28;20049;-84
2022/02/17 02:58:13;;;;;;;0.63;0.10;;;;;;;10.34;100.00;97572.25;5010913;28;20116;-84
2022/02/17 03:00:40;;;;;;;0.05;0.05;;;;;;;10.32;100.00;97565.34;5010847;28;20489;-84
2022/02/17 03:03:07;;;;;;;0.40;0.10;;;;;;;10.26;100.00;97550.75;5010618;28;20052;-84
2022/02/17 03:05:34;;;;;;;0.10;0.10;;;;;;;10.27;100.00;97555.97;5009167;28;20049;-84
2022/02/17 03:08:01;;;;;;;0.10;0.10;;;;;;;10.35;100.00;97567.63;5011678;28;20140;-84
2022/02/17 03:10:31;;;;;;;0.00;0.00;;;;;;;10.29;100.00;97558.47;4998248;28;20089;-85
2022/02/17 03:13:00;;;;;;;0.00;0.00;;;;;;;10.34;100.00;97565.97;5010712;28;20046;-85
2022/02/17 03:15:28;;;;;;;0.13;0.03;;;;;;;10.21;100.00;97551.44;5010419;28;20133;-85
2022/02/17 03:17:55;;;;;;;0.00;0.00;;;;;;;10.29;100.00;97550.31;5011266;28;20800;-85
2022/02/17 03:20:22;;;;;;;0.00;0.00;;;;;;;10.42;100.00;97549.41;5011185;28;20391;-85
2022/02/17 03:22:49;;;;;;;0.00;0.00;;;;;;;10.38;100.00;97556.31;5009449;28;20141;-85
2022/02/17 03:25:16;;;;;;;0.00;0.00;;;;;;;10.48;100.00;97567.53;5010281;28;20060;-85
2022/02/17 03:27:43;;;;;;;0.00;0.00;;;;;;;10.48;100.00;97559.38;5010618;28;20049;-85
2022/02/17 03:30:15;;;;;;;0.45;0.10;;;;;;;10.51;100.00;97556.22;5010863;28;20157;-84
2022/02/17 03:32:42;;;;;;;0.20;0.20;;;;;;;10.56;100.00;97561.78;5011291;28;20050;-84
2022/02/17 03:35:21;;;;;;;0.00;0.00;;;;;;;10.60;100.00;97556.75;5009451;28;20046;-84
2022/02/17 03:37:47;;;;;;;0.00;0.00;;;;;;;10.59;100.00;97561.34;5013516;28;20125;-84
2022/02/17 03:40:14;;;;;;;0.00;0.00;;;;;;;10.63;100.00;97568.00;5010392;28;20497;-84
2022/02/17 03:42:43;;;;;;;0.10;0.10;;;;;;;10.59;100.00;97553.19;5010413;28;20394;-84
2022/02/17 03:45:10;;;;;;;0.10;0.10;;;;;;;10.68;100.00;97551.00;5009594;28;20060;-84
2022/02/17 03:47:38;;;;;;;0.00;0.00;;;;;;;10.71;100.00;97569.59;5009337;28;20052;-84
2022/02/17 03:50:07;;;;;;;0.00;0.00;;;;;;;10.65;100.00;97547.94;5005622;28;20048;-84
2022/02/17 03:52:36;;;;;;;0.00;0.00;;;;;;;10.68;100.00;97563.78;5009953;28;20045;-84
2022/02/17 03:55:03;;;;;;;0.10;0.10;;;;;;;10.73;100.00;97570.19;5013025;28;20077;-84
2022/02/17 03:57:30;;;;;;;4.57;0.10;;;;;;;10.80;100.00;97570.13;5010566;28;20050;-85
2022/02/17 03:59:56;;;;;;;0.22;0.10;;;;;;;10.77;100.00;97571.41;5009790;28;20050;-84
2022/02/17 04:02:23;;;;;;;0.20;0.10;;;;;;;10.72;100.00;97573.13;5015937;28;20057;-84
2022/02/17 04:04:51;;;;;;;0.00;0.00;;;;;;;10.69;100.00;97559.97;5009266;28;20050;-84
2022/02/17 04:07:18;;;;;;;0.08;0.08;;;;;;;10.79;100.00;97558.44;5008935;28;20049;-84
2022/02/17 04:09:45;;;;;;;0.17;0.00;;;;;;;10.72;100.00;97564.97;5012108;28;20060;-84
2022/02/17 04:12:12;;;;;;;0.10;0.00;;;;;;;10.84;100.00;97570.50;5001773;28;20042;-84
2022/02/17 04:14:39;;;;;;;0.10;0.10;;;;;;;10.90;100.00;97581.31;5009577;28;20049;-84
2022/02/17 04:17:06;;;;;;;0.08;0.08;;;;;;;11.00;100.00;97590.81;5009558;28;20136;-84
2022/02/17 04:19:32;;;;;;;0.43;0.10;;;;;;;11.26;100.00;97595.13;5005983;28;20050;-84
2022/02/17 04:22:00;;;;;;;1.88;0.10;;;;;;;11.48;100.00;97601.75;5007881;28;20053;-84
2022/02/17 04:24:27;;;;;;;0.10;0.10;;;;;;;11.69;100.00;97572.38;5013946;28;20489;-85
2022/02/17 04:26:54;;;;;;;0.40;0.10;;;;;;;11.89;100.00;97593.03;5016871;28;20079;-85
2022/02/17 04:29:21;;;;;;;0.45;0.13;;;;;;;11.86;100.00;97576.13;5016483;28;20064;-85
2022/02/17 04:31:49;;;;;;;0.10;0.10;;;;;;;11.72;100.00;97571.91;5022944;28;20069;-85
2022/02/17 04:34:17;;;;;;;0.00;0.00;;;;;;;11.85;100.00;97579.06;5013766;28;20104;-85
2022/02/17 04:36:44;;;;;;;0.40;0.20;;;;;;;11.61;100.00;97627.97;5013998;28;20077;-83
2022/02/17 04:39:14;;;;;;;1.90;0.98;;;;;;;11.40;100.00;97604.78;5016429;28;20042;-86
2022/02/17 04:44:25;;;;;;;0.60;0.50;;;;;;;11.05;100.00;97616.28;5013159;28;20125;-83
2022/02/17 04:46:52;;;;;;;0.13;0.10;;;;;;;11.06;100.00;97609.78;5015987;28;20049;-84
2022/02/17 04:49:18;;;;;;;0.20;0.10;;;;;;;11.14;100.00;97624.97;5015317;28;20140;-84
2022/02/17 04:51:45;;;;;;;0.03;0.03;;;;;;;11.16;100.00;97614.72;5007909;28;20616;-84
2022/02/17 04:54:13;;;;;;;0.00;0.00;;;;;;;11.28;100.00;97628.38;5012643;28;20450;-86
2022/02/17 04:56:40;;;;;;;0.10;0.10;;;;;;;11.25;100.00;97632.38;5016042;28;20057;-84
2022/02/17 04:59:07;;;;;;;0.22;0.13;;;;;;;11.19;100.00;97632.47;5004636;28;20046;-84
2022/02/17 05:01:33;;;;;;;0.00;0.00;;;;;;;11.03;100.00;97621.09;5015618;28;20073;-81
2022/02/17 05:04:00;;;;;;;0.10;0.10;;;;;;;11.00;100.00;97616.13;5015610;28;20084;-86
2022/02/17 05:06:27;;;;;;;0.00;0.00;;;;;;;11.05;100.00;97638.06;5015314;28;20069;-83
2022/02/17 05:08:54;;;;;;;0.20;0.20;;;;;;;11.01;100.00;97644.16;5015488;28;20049;-82
2022/02/17 05:11:22;;;;;;;0.22;0.22;;;;;;;10.99;100.00;97628.06;5015245;28;20085;-84
2022/02/17 05:13:49;;;;;;;0.25;0.20;;;;;;;11.14;100.00;97652.16;5014700;28;20140;-83
2022/02/17 05:16:16;;;;;;;0.40;0.40;;;;;;;11.04;100.00;97676.34;5014673;28;20050;-84
2022/02/17 05:18:42;;;;;;;1.27;0.20;;;;;;;11.01;100.00;97684.97;5015092;28;20076;-84
2022/02/17 05:21:09;;;;;;;0.40;0.00;;;;;;;11.10;100.00;97700.75;5015475;28;20141;-84
2022/02/17 05:23:35;;;;;;;0.10;0.10;;;;;;;11.01;100.00;97731.19;5014058;28;20057;-82
2022/02/17 05:26:02;;;;;;;3.85;0.30;;;;;;;10.87;100.00;97720.41;5014532;28;20069;-84
2022/02/17 05:28:30;;;;;;;0.30;0.30;;;;;;;10.85;100.00;97752.41;5015355;28;20470;-84
2022/02/17 05:30:56;;;;;;;1.55;0.50;;;;;;;10.79;100.00;97737.00;5015191;28;20529;-84
2022/02/17 05:33:26;;;;;;;0.43;0.30;;;;;;;10.85;100.00;97757.03;5012808;28;20049;-85
2022/02/17 05:35:55;;;;;;;1.45;0.80;;;;;;;10.81;100.00;97751.22;5011629;28;20050;-84
2022/02/17 05:38:26;;;;;;;0.40;0.20;;;;;;;10.85;100.00;97766.00;5013332;28;20057;-86
2022/02/17 05:40:53;;;;;;;0.52;0.38;;;;;;;10.68;100.00;97763.00;5015118;28;20133;-85
2022/02/17 05:43:22;;;;;;;5.95;0.45;;;;;;;10.65;100.00;97765.34;5009355;28;20078;-85
2022/02/17 05:45:50;;;;;;;2.63;0.20;;;;;;;10.59;100.00;97794.22;5006152;28;20614;-85
2022/02/17 05:48:16;;;;;;;2.55;0.63;;;;;;;10.58;100.00;97793.41;5010008;28;20371;-84
2022/02/17 05:50:43;;;;;;;2.28;0.50;;;;;;;10.60;100.00;97787.75;5012016;28;20048;-85
2022/02/17 05:53:12;;;;;;;1.90;0.75;;;;;;;10.43;100.00;97784.69;4997779;28;20050;-85
2022/02/17 05:55:40;;;;;;;4.28;0.80;;;;;;;10.37;100.00;97778.25;4992775;28;20513;-83
2022/02/17 05:58:07;;;;;;;3.85;0.85;;;;;;;10.37;100.00;97808.13;5006384;28;20057;-85
2022/02/17 06:00:36;;;;;;;3.10;0.73;;;;;;;10.32;100.00;97797.03;5011457;28;20050;-85
2022/02/17 06:03:04;;;;;;;2.47;0.60;;;;;;;10.38;100.00;97817.94;5007306;28;20100;-84
2022/02/17 06:05:30;;;;;;;3.92;1.00;;;;;;;10.31;100.00;97816.28;5009273;28;20125;-84
2022/02/17 06:07:57;;;;;;;4.10;1.02;;;;;;;10.33;100.00;97819.59;5011630;28;20057;-84
2022/02/17 06:10:24;;;;;;;4.90;1.25;;;;;;;10.27;100.00;97824.84;5012228;28;20129;-84
2022/02/17 06:12:51;;;;;;;3.17;0.77;;;;;;;10.24;100.00;97829.91;5009476;28;20045;-84
2022/02/17 06:15:18;;;;;;;2.78;0.55;;;;;;;10.25;100.00;97836.97;5011493;28;20076;-85
2022/02/17 06:17:46;;;;;;;4.35;0.77;;;;;;;10.21;100.00;97841.19;5012059;28;20042;-84
2022/02/17 06:20:14;;;;;;;3.10;0.90;;;;;;;10.21;100.00;97833.88;5007757;28;20042;-84
2022/02/17 06:22:46;;;;;;;3.53;0.90;;;;;;;10.16;100.00;97830.13;5010299;28;20057;-84
2022/02/17 06:25:12;;;;;;;4.47;1.88;;;;;;;10.17;100.00;97826.38;5007868;28;20057;-84
2022/02/17 06:27:39;;;;;;;3.20;0.77;;;;;;;10.10;100.00;97820.94;5011784;28;20409;-85
2022/02/17 06:30:09;;;;;;;8.68;0.98;;;;;;;10.12;100.00;97846.03;5012908;28;20049;-85
2022/02/17 06:32:36;;;;;;;10.93;1.73;;;;;;;10.07;100.00;97843.97;5012585;28;20549;-84
2022/02/17 06:35:03;;;;;;;3.47;1.05;;;;;;;10.14;100.00;97843.09;5010249;28;20058;-84
2022/02/17 06:37:31;;;;;;;3.25;0.65;;;;;;;10.08;100.00;97847.50;5010578;28;20046;-85
2022/02/17 06:39:57;;;;;;;5.05;1.15;;;;;;;10.02;100.00;97851.06;5010392;28;20056;-84
2022/02/17 06:42:24;;;;;;;5.72;0.95;;;;;;;9.92;100.00;97856.94;5011723;28;20112;-84
2022/02/17 06:44:51;;;;;;;8.40;1.40;;;;;;;9.95;100.00;97867.38;5008811;28;20385;-85
2022/02/17 06:47:20;;;;;;;6.85;1.35;;;;;;;9.98;100.00;97891.41;5005806;28;20056;-85
2022/02/17 06:49:49;;;;;;;2.65;0.85;;;;;;;9.96;100.00;97871.75;5011278;28;20589;-85
2022/02/17 06:52:15;;;;;;;8.88;1.27;;;;;;;9.90;100.00;97884.28;5003368;28;20484;-85
2022/02/17 06:54:43;;;;;;;3.38;1.30;;;;;;;9.86;100.00;97876.78;5011073;28;20045;-84
2022/02/17 06:57:10;;;;;;;12.30;2.47;;;;;;;9.87;100.00;97895.56;5011143;28;20101;-84
2022/02/17 06:59:37;;;;;;;4.28;1.17;;;;;;;9.88;100.00;97886.38;5007146;28;20065;-84
2022/02/17 07:02:04;;;;;;;7.68;1.00;;;;;;;9.80;100.00;97883.06;5011378;28;20073;-84
2022/02/17 07:04:30;;;;;;;2.83;0.95;;;;;;;9.92;100.00;97882.22;5014288;28;20048;-83
2022/02/17 07:06:57;;;;;;;10.25;2.42;;;;;;;9.91;100.00;97894.09;5010333;28;20073;-84
2022/02/17 07:09:24;;;;;;;7.05;1.02;;;;;;;9.96;100.00;97895.38;5010771;28;20398;-84
2022/02/17 07:11:54;;;;;;;4.20;0.90;;;;;;;9.91;100.00;97902.25;5010692;28;20409;-85
2022/02/17 07:14:23;;;;;;;7.32;1.33;;;;;;;9.84;100.00;97904.13;5010345;28;20573;-85
2022/02/17 07:16:53;;;;;;;8.32;1.40;;;;;;;9.81;100.00;97928.16;5011380;28;20525;-85
2022/02/17 07:19:20;;;;;;;8.45;1.13;;;;;;;9.82;100.00;97929.84;5011399;28;20129;-84
2022/02/17 07:21:50;;;;;;;13.73;2.00;;;;;;;9.86;100.00;97931.06;5009241;28;20053;-85
2022/02/17 07:24:17;;;;;;;11.38;2.63;;;;;;;9.91;100.00;97936.72;5005377;28;20508;-85
2022/02/17 07:26:44;;;;;;;8.40;1.23;;;;;;;9.88;100.00;97943.41;5010765;28;20109;-85
2022/02/17 07:29:12;;;;;;;4.30;2.00;;;;;;;9.90;100.00;97967.63;5011544;28;20061;-85
2022/02/17 07:31:39;;;;;;;5.35;1.20;;;;;;;9.89;100.00;97947.78;5000848;28;20050;-85
2022/02/17 07:34:10;;;;;;;9.68;1.60;;;;;;;9.82;100.00;97956.97;5009871;28;20049;-86
2022/02/17 07:36:39;;;;;;;12.05;3.08;;;;;;;9.85;100.00;97967.41;5000469;28;20145;-86
2022/02/17 07:39:07;;;;;;;18.92;4.60;;;;;;;9.92;100.00;97969.09;5005525;28;20046;-85
2022/02/17 07:41:36;;;;;;;12.05;3.33;;;;;;;9.86;100.00;97958.22;4994933;28;20050;-85
2022/02/17 07:44:03;;;;;;;12.00;3.33;;;;;;;9.98;100.00;97970.13;5010215;28;20076;-85
2022/02/17 07:46:35;;;;;;;7.80;1.55;;;;;;;10.00;98.89;97965.31;5009959;28;20503;-85
2022/02/17 07:49:07;;;;;;;6.35;1.30;;;;;;;10.06;98.03;97985.38;5002347;28;20057;-84
2022/02/17 07:51:36;;;;;;;11.55;1.67;;;;;;;10.05;99.23;98010.84;5005692;28;20069;-85
2022/02/17 07:54:03;;;;;;;13.57;2.00;;;;;;;9.91;100.00;97985.59;4999383;28;20596;-84
2022/02/17 07:56:33;;;;;;;10.77;2.15;;;;;;;9.94;98.10;98003.34;5007430;28;20054;-89
2022/02/17 07:58:59;;;;;;;7.35;1.23;;;;;;;9.97;97.55;98025.47;5008299;28;20050;-84
2022/02/17 08:01:26;;;;;;;15.15;2.05;;;;;;;10.02;97.14;98047.38;4995511;28;20141;-85
2022/02/17 08:03:55;;;;;;;4.95;1.60;;;;;;;10.06;94.19;98012.53;5012143;28;20396;-84
2022/02/17 08:06:22;;;;;;;20.20;3.00;;;;;;;10.04;94.22;98034.47;5013254;28;20046;-85
2022/02/17 08:08:50;;;;;;;15.07;1.80;;;;;;;10.05;92.25;98019.00;5014329;28;20046;-84
2022/02/17 08:11:17;;;;;;;8.40;1.60;;;;;;;10.04;93.50;98042.59;5014476;28;20092;-84
2022/02/17 08:13:44;;;;;;;8.93;1.42;;;;;;;10.09;90.31;98023.78;5013262;28;20072;-84
2022/02/17 08:16:11;;;;;;;11.55;1.60;;;;;;;10.13;88.22;98015.22;5004628;28;20508;-86
2022/02/17 08:18:38;;;;;;;15.88;2.55;;;;;;;10.18;87.43;98046.13;5014975;28;20053;-84
2022/02/17 08:21:08;;;;;;;9.13;1.98;;;;;;;10.20;86.56;98043.22;5014499;28;20085;-85
2022/02/17 08:23:40;;;;;;;6.78;1.40;;;;;;;10.26;85.16;98064.09;5014755;28;20049;-85
2022/02/17 08:26:07;;;;;;;12.98;1.92;;;;;;;10.19;85.09;98064.13;5015080;28;20053;-84
2022/02/17 08:28:34;;;;;;;10.30;1.50;;;;;;;10.20;81.90;98090.22;5012840;28;20049;-83
2022/02/17 08:31:01;;;;;;;14.98;1.88;;;;;;;10.22;81.40;98073.69;5014321;28;20057;-83
2022/02/17 08:33:30;;;;;;;8.90;1.70;;;;;;;10.13;82.66;98094.78;5005825;28;20042;-83
2022/02/17 08:35:58;;;;;;;9.32;2.05;;;;;;;10.07;82.66;98077.47;5003896;28;20049;-83
2022/02/17 08:38:31;;;;;;;13.73;1.90;;;;;;;10.14;81.80;98085.63;5005545;28;20516;-84
2022/02/17 08:40:58;;;;;;;10.35;1.92;;;;;;;10.21;78.44;98062.00;5011580;28;20383;-84
2022/02/17 08:43:25;;;;;;;4.20;1.08;;;;;;;10.21;80.02;98074.78;5006053;28;20046;-84
2022/02/17 08:45:51;;;;;;;12.20;2.50;;;;;;;10.23;80.71;98076.22;5004346;28;20057;-84
2022/02/17 08:48:18;;;;;;;9.95;2.80;;;;;;;10.35;75.85;98075.63;5014242;28;20129;-84
2022/02/17 08:50:46;;;;;;;12.55;2.78;;;;;;;10.37;76.06;98096.13;5010754;28;20046;-84
2022/02/17 08:53:13;;;;;;;7.93;1.90;;;;;;;10.37;75.28;98106.97;5000921;28;20057;-85
2022/02/17 08:55:41;;;;;;;11.82;1.63;;;;;;;10.45;75.95;98124.94;5013507;28;20053;-82
2022/02/17 08:58:07;;;;;;;7.97;1.75;;;;;;;10.57;68.55;98117.81;5008776;28;20039;-84
2022/02/17 09:00:36;;;;;;;6.30;1.65;;;;;;;10.62;71.04;98133.50;5010361;28;20494;-83
2022/02/17 09:03:03;;;;;;;4.70;1.23;;;;;;;10.55;71.20;98127.22;5014155;28;20056;-83
2022/02/17 09:05:31;;;;;;;3.90;1.27;;;;;;;10.54;71.35;98159.00;5019233;28;20053;-83
2022/02/17 09:07:58;;;;;;;9.38;2.13;;;;;;;10.49;68.76;98163.41;5010249;28;20412;-83
2022/02/17 09:10:24;;;;;;;12.32;2.72;;;;;;;10.61;70.62;98178.03;5014681;28;20041;-82
2022/02/17 09:12:52;;;;;;;13.60;2.88;;;;;;;10.79;71.48;98174.66;5013019;28;20050;-83
2022/02/17 09:15:19;;;;;;;10.20;2.30;;;;;;;10.81;69.85;98164.44;5013835;28;20075;-83
2022/02/17 09:17:46;;;;;;;14.57;2.65;;;;;;;10.82;70.74;98190.56;5010184;28;20398;-83
2022/02/17 09:20:15;;;;;;;22.90;3.67;;;;;;;10.72;68.71;98165.69;5016535;28;20500;-87
2022/02/17 09:22:42;;;;;;;12.40;2.45;;;;;;;10.83;69.98;98194.97;5025546;28;20046;-85
2022/02/17 09:25:08;;;;;;;10.15;2.08;;;;;;;10.94;69.68;98190.75;5015995;28;20046;-84
2022/02/17 09:27:37;;;;;;;25.75;4.35;;;;;;;10.89;64.99;98171.53;5008240;28;20053;-86
2022/02/17 09:30:09;;;;;;;15.25;3.25;;;;;;;11.05;66.12;98200.16;5001888;28;20042;-80
2022/02/17 09:32:36;;;;;;;18.83;2.17;;;;;;;11.17;64.85;98206.66;5011326;28;20054;-83
2022/02/17 09:35:12;;;;;;;21.83;2.25;;;;;;;11.16;66.76;98224.81;5013455;28;20050;-86
2022/02/17 09:37:39;;;;;;;12.80;2.50;;;;;;;11.04;65.28;98215.66;5011232;28;20058;-85
2022/02/17 09:40:08;;;;;;;26.45;4.30;;;;;;;11.11;67.77;98243.69;5008911;28;20045;-85
2022/02/17 09:42:38;;;;;;;18.45;2.55;;;;;;;11.10;67.22;98220.25;5010033;28;20049;-85
2022/02/17 09:45:20;;;;;;;11.20;2.80;;;;;;;11.07;65.75;98234.25;5013088;28;20084;-85
2022/02/17 09:47:50;;;;;;;21.83;2.80;;;;;;;10.88;64.45;98216.91;5010377;28;20056;-85
2022/02/17 09:50:17;;;;;;;16.90;3.10;;;;;;;10.88;65.45;98249.53;5009938;28;20077;-85
2022/02/17 09:52:45;;;;;;;11.50;2.17;;;;;;;10.74;63.46;98228.84;5005401;28;20060;-87
2022/02/17 09:55:16;;;;;;;11.05;2.15;;;;;;;10.79;64.51;98226.31;5007942;28;20048;-83
2022/02/17 09:57:43;;;;;;;17.15;3.63;;;;;;;10.88;66.20;98222.34;5009629;28;20503;-86
2022/02/17 10:00:15;;;;;;;26.52;3.38;;;;;;;10.88;64.34;98257.69;5012053;28;20137;-86
2022/02/17 10:02:43;;;;;;;12.05;2.42;;;;;;;10.79;65.30;98245.34;4998575;28;20049;-89
2022/02/17 10:05:11;;;;;;;13.98;3.38;;;;;;;10.82;65.11;98247.66;5001093;28;20056;-84
2022/02/17 10:07:40;;;;;;;15.18;2.60;;;;;;;10.82;66.61;98263.97;5012315;28;20046;-84
2022/02/17 10:10:10;;;;;;;10.30;2.63;;;;;;;10.77;66.67;98242.84;4993795;28;20429;-85
2022/02/17 10:12:50;;;;;;;9.57;2.00;;;;;;;10.71;64.08;98256.44;5010023;28;20054;-84
2022/02/17 10:15:27;;;;;;;19.95;3.33;;;;;;;10.76;65.90;98267.53;5005945;28;20048;-84
2022/02/17 10:18:04;;;;;;;14.65;2.47;;;;;;;10.62;66.79;98285.72;5007936;28;20412;-84
2022/02/17 10:20:52;;;;;;;31.20;3.75;;;;;;;10.49;66.30;98272.91;5005455;28;20050;-86
2022/02/17 10:23:18;;;;;;;12.00;2.92;;;;;;;10.41;67.52;98284.81;5001805;28;20050;-86
2022/02/17 10:26:03;;;;;;;19.35;3.75;;;;;;;10.74;67.23;98292.19;5012062;28;20415;-85
2022/02/17 10:28:32;;;;;;;34.80;2.85;;;;;;;10.73;66.26;98268.75;5011009;28;20140;-86
2022/02/17 10:31:04;;;;;;;27.08;3.83;;;;;;;10.67;67.50;98250.56;5010759;28;20125;-86
2022/02/17 10:33:42;;;;;;;19.52;2.53;;;;;;;10.77;66.63;98299.94;5010363;28;20049;-84
2022/02/17 10:36:12;;;;;;;15.63;3.38;;;;;;;10.67;68.17;98283.19;5010443;28;20121;-85
2022/02/17 10:38:39;;;;;;;;;;;;;;;10.47;70.08;98302.19;5011555;28;20050;-85
2022/02/17 10:41:06;;;;;;;12.25;2.83;;;;;;;10.41;69.84;98286.72;5007974;28;19940;-84
2022/02/17 10:43:35;;;;;;;20.63;3.03;;;;;;;10.40;72.76;98299.47;5003835;28;20060;-84
2022/02/17 10:46:09;;;;;;;19.63;3.58;;;;;;;10.45;70.64;98318.69;5007804;28;20060;-90
2022/02/17 10:48:37;;;;;;;17.58;3.97;;;;;;;10.39;71.48;98308.66;5006541;28;20042;-90
2022/02/17 10:51:10;;;;;;;14.18;3.15;;;;;;;10.59;75.45;98318.72;5008522;28;20064;-83
2022/02/17 10:53:40;;;;;;;12.13;2.85;;;;;;;10.37;75.19;98293.59;5007636;28;20042;-80
2022/02/17 10:56:11;;;;;;;19.17;2.92;;;;;;;10.38;75.73;98314.28;5007226;28;20089;-86
2022/02/17 10:58:43;;;;;;;17.33;2.97;;;;;;;10.23;73.50;98304.38;5009622;28;20398;-83
2022/02/17 11:01:12;;;;;;;16.23;2.22;;;;;;;10.32;71.27;98304.22;5009467;28;20478;-81
2022/02/17 11:03:40;;;;;;;25.38;5.28;;;;;;;10.35;73.03;98293.78;5008554;28;20066;-85
2022/02/17 11:06:11;;;;;;;16.77;2.63;;;;;;;10.67;71.52;98293.25;5005584;28;20049;-88
2022/02/17 11:08:38;;;;;;;12.38;3.58;;;;;;;11.10;70.41;98296.41;5009911;28;20463;-85
2022/02/17 11:11:05;;;;;;;10.23;1.65;;;;;;;11.20;66.83;98279.66;5008978;28;20057;-81
2022/02/17 11:13:33;;;;;;;7.68;2.35;;;;;;;11.42;65.98;98293.03;5007944;28;20054;-84
2022/02/17 11:16:03;;;;;;;16.08;2.97;;;;;;;11.60;62.08;98276.88;5006335;28;20054;-81
2022/02/17 11:18:32;;;;;;;6.75;2.03;;;;;;;11.46;61.48;98286.94;5008734;28;20049;-84
2022/02/17 11:21:00;;;;;;;18.08;2.65;;;;;;;11.38;62.68;98283.59;5005698;28;20276;-83
2022/02/17 11:23:32;;;;;;;8.27;2.08;;;;;;;11.51;65.12;98294.47;5007537;28;20046;-84
2022/02/17 11:26:00;;;;;;;14.48;2.28;;;;;;;11.59;67.60;98288.81;5007778;28;20489;-83
2022/02/17 11:28:34;;;;;;;15.32;2.35;;;;;;;11.43;67.75;98271.03;5008678;28;20054;-84
2022/02/17 11:31:04;;;;;;;11.45;2.38;;;;;;;11.39;68.63;98293.47;5008476;28;20041;-83
2022/02/17 11:33:33;;;;;;;13.55;1.90;;;;;;;11.07;70.05;98309.59;5007814;28;20125;-85